Time;durP1;ratioP1;P1;durP2;ratioP2;P2;SDS_P1;SDS_P2;PMS_P1;PMS_P2;Temp;Humidity;BMP_temperature;BMP_pressure;BME280_temperature;BME280_humidity;BME280_pressure;Samples;Min_cycle;Max_cycle;Signal;HPM_P1;HPM_P2
2024/01/22 00:00:15;;;;;;;8.40;6.40;;;;;;;;;;5074404;28;20496;-51
2024/01/22 00:02:41;;;;;;;10.00;6.60;;;;;;;;;;5074232;28;20477;-51
2024/01/22 00:05:10;;;;;;;10.63;6.03;;;;;;;;;;5073835;28;20442;-51
2024/01/22 00:07:36;;;;;;;7.23;5.80;;;;;;;;;;5072875;28;20449;-51
2024/01/22 00:10:02;;;;;;;11.13;6.03;;;;;;;;;;5073655;28;20525;-52
2024/01/22 00:12:30;;;;;;;9.87;6.07;;;;;;;;;;5073951;28;20474;-50
2024/01/22 00:14:56;;;;;;;7.23;5.83;;;;;;;;;;5073752;28;20525;-49
2024/01/22 00:17:22;;;;;;;8.03;5.73;;;;;;;;;;5073532;28;20544;-49
2024/01/22 00:19:48;;;;;;;11.17;6.73;;;;;;;;;;5073538;28;20195;-49
2024/01/22 00:22:15;;;;;;;9.43;5.73;;;;;;;;;;5073980;28;20469;-49
2024/01/22 00:24:41;;;;;;;10.00;6.30;;;;;;;;;;5073599;28;20203;-50
2024/01/22 00:27:07;;;;;;;10.47;6.30;;;;;;;;;;5073074;28;20438;-50
2024/01/22 00:29:33;;;;;;;8.87;6.43;;;;;;;;;;5073288;28;20200;-48
2024/01/22 00:31:59;;;;;;;11.37;6.83;;;;;;;;;;5073556;28;20217;-48
2024/01/22 00:34:25;;;;;;;9.40;6.33;;;;;;;;;;5073466;28;20438;-47
2024/01/22 00:36:51;;;;;;;8.60;5.53;;;;;;;;;;5073325;28;20440;-48
2024/01/22 00:39:18;;;;;;;8.50;6.00;;;;;;;;;;5073415;28;20206;-48
2024/01/22 00:41:44;;;;;;;9.40;6.30;;;;;;;;;;5072899;28;20224;-49
2024/01/22 00:44:10;;;;;;;7.73;5.90;;;;;;;;;;5073477;28;20433;-49
2024/01/22 00:46:36;;;;;;;10.47;6.00;;;;;;;;;;5071950;28;20658;-50
2024/01/22 00:49:02;;;;;;;7.63;5.53;;;;;;;;;;5073102;28;20210;-49
2024/01/22 00:51:28;;;;;;;9.17;5.77;;;;;;;;;;5073267;28;20203;-49
2024/01/22 00:53:54;;;;;;;8.73;5.73;;;;;;;;;;5072551;28;20565;-48
2024/01/22 00:56:23;;;;;;;7.73;5.50;;;;;;;;;;5073421;28;20207;-48
2024/01/22 00:58:49;;;;;;;7.57;6.23;;;;;;;;;;5072801;28;20513;-49
2024/01/22 01:01:15;;;;;;;9.40;6.40;;;;;;;;;;5072920;28;20560;-48
2024/01/22 01:03:41;;;;;;;10.70;6.30;;;;;;;;;;5072752;28;20192;-49
2024/01/22 01:06:07;;;;;;;8.07;5.70;;;;;;;;;;5072620;28;20551;-49
2024/01/22 01:08:33;;;;;;;9.17;5.73;;;;;;;;;;5072771;28;20235;-49
2024/01/22 01:10:59;;;;;;;8.70;5.60;;;;;;;;;;5072812;28;20485;-48
2024/01/22 01:13:26;;;;;;;6.93;5.17;;;;;;;;;;5072610;28;20243;-49
2024/01/22 01:15:52;;;;;;;7.03;5.57;;;;;;;;;;5072480;28;20212;-49
2024/01/22 01:18:18;;;;;;;11.23;5.60;;;;;;;;;;5071976;28;20465;-48
2024/01/22 01:20:44;;;;;;;9.53;6.00;;;;;;;;;;5072451;28;20203;-49
2024/01/22 01:23:10;;;;;;;8.37;4.90;;;;;;;;;;5072494;28;20499;-49
2024/01/22 01:25:37;;;;;;;8.97;6.00;;;;;;;;;;5072468;28;20266;-48
2024/01/22 01:28:03;;;;;;;6.60;4.80;;;;;;;;;;5072245;28;20214;-49
2024/01/22 01:30:30;;;;;;;7.17;5.20;;;;;;;;;;5072260;28;20472;-49
2024/01/22 01:32:56;;;;;;;8.10;4.83;;;;;;;;;;5072169;28;20920;-49
2024/01/22 01:35:22;;;;;;;7.37;4.23;;;;;;;;;;5072325;28;20441;-48
2024/01/22 01:37:48;;;;;;;7.07;4.50;;;;;;;;;;5071874;28;20211;-49
2024/01/22 01:40:14;;;;;;;6.23;4.17;;;;;;;;;;5072382;28;20195;-49
2024/01/22 01:42:42;;;;;;;5.63;4.20;;;;;;;;;;5071762;28;20223;-49
2024/01/22 01:45:11;;;;;;;5.83;4.17;;;;;;;;;;5072147;28;20200;-49
2024/01/22 01:47:38;;;;;;;6.50;4.20;;;;;;;;;;5071839;28;20438;-48
2024/01/22 01:50:04;;;;;;;5.43;3.83;;;;;;;;;;5071645;28;20450;-49
2024/01/22 01:52:30;;;;;;;4.83;3.47;;;;;;;;;;5072260;28;20423;-49
2024/01/22 01:54:56;;;;;;;6.30;3.60;;;;;;;;;;5071476;28;20562;-49
2024/01/22 01:57:22;;;;;;;5.43;3.40;;;;;;;;;;5071912;28;20442;-49
2024/01/22 01:59:49;;;;;;;5.53;3.70;;;;;;;;;;5071619;28;20654;-49
2024/01/22 02:02:15;;;;;;;5.50;3.60;;;;;;;;;;5071820;28;20224;-49
2024/01/22 02:04:42;;;;;;;5.07;3.33;;;;;;;;;;5072002;28;20430;-48
2024/01/22 02:07:08;;;;;;;6.13;3.90;;;;;;;;;;5071339;28;20208;-49
2024/01/22 02:09:49;;;;;;;6.83;3.97;;;;;;;;;;5071671;28;20433;-49
2024/01/22 02:12:16;;;;;;;3.93;3.37;;;;;;;;;;5071760;28;20281;-49
2024/01/22 02:14:42;;;;;;;4.73;3.77;;;;;;;;;;5071573;28;20450;-49
2024/01/22 02:17:08;;;;;;;5.90;3.50;;;;;;;;;;5071471;28;20232;-50
2024/01/22 02:19:34;;;;;;;5.63;3.20;;;;;;;;;;5071427;28;20222;-49
2024/01/22 02:22:01;;;;;;;5.73;3.27;;;;;;;;;;5071423;28;20219;-49
2024/01/22 02:24:28;;;;;;;5.57;3.10;;;;;;;;;;5071767;28;20213;-49
2024/01/22 02:26:54;;;;;;;6.17;3.70;;;;;;;;;;5071402;28;20453;-49
2024/01/22 02:29:20;;;;;;;3.83;3.03;;;;;;;;;;5067552;28;20442;-50
2024/01/22 02:31:49;;;;;;;5.50;3.40;;;;;;;;;;5070933;28;20238;-50
2024/01/22 02:34:15;;;;;;;4.97;3.47;;;;;;;;;;5071662;28;20199;-51
2024/01/22 02:36:41;;;;;;;5.37;2.90;;;;;;;;;;5071590;28;20198;-51
2024/01/22 02:39:07;;;;;;;5.00;3.03;;;;;;;;;;5071476;28;20325;-51
2024/01/22 02:41:34;;;;;;;3.53;3.10;;;;;;;;;;5071449;28;20326;-51
2024/01/22 02:44:00;;;;;;;3.87;3.50;;;;;;;;;;5071525;28;20247;-49
2024/01/22 02:46:26;;;;;;;4.43;3.20;;;;;;;;;;5071810;28;20195;-48
2024/01/22 02:48:52;;;;;;;4.70;3.13;;;;;;;;;;5071229;28;20222;-49
2024/01/22 02:51:18;;;;;;;4.83;3.10;;;;;;;;;;5071478;28;20223;-52
2024/01/22 02:53:44;;;;;;;4.17;2.97;;;;;;;;;;5071390;28;20226;-51
2024/01/22 02:56:10;;;;;;;3.90;3.03;;;;;;;;;;5071488;28;20695;-50
2024/01/22 02:58:37;;;;;;;4.37;2.87;;;;;;;;;;5071450;28;20219;-50
2024/01/22 03:01:03;;;;;;;5.37;3.00;;;;;;;;;;5071293;28;20231;-50
2024/01/22 03:03:29;;;;;;;6.27;3.00;;;;;;;;;;5071460;28;20198;-50
2024/01/22 03:05:55;;;;;;;5.57;2.93;;;;;;;;;;5071424;28;20203;-50
2024/01/22 03:08:21;;;;;;;4.67;2.57;;;;;;;;;;5071378;28;20204;-50
2024/01/22 03:10:47;;;;;;;3.30;2.27;;;;;;;;;;5071457;28;20294;-50
2024/01/22 03:13:13;;;;;;;2.83;2.20;;;;;;;;;;5071259;28;20249;-50
2024/01/22 03:15:40;;;;;;;2.30;2.00;;;;;;;;;;5071310;28;20273;-50
2024/01/22 03:18:07;;;;;;;2.60;1.60;;;;;;;;;;5071106;28;20226;-50
2024/01/22 03:20:33;;;;;;;2.67;1.87;;;;;;;;;;5071461;28;20207;-51
2024/01/22 03:22:59;;;;;;;2.43;1.73;;;;;;;;;;5071218;28;20230;-51
2024/01/22 03:25:25;;;;;;;2.93;1.80;;;;;;;;;;5071354;28;20253;-51
2024/01/22 03:27:50;;;;;;;3.17;1.80;;;;;;;;;;5071189;28;20683;-50
2024/01/22 03:30:17;;;;;;;1.93;1.67;;;;;;;;;;5062775;28;20280;-50
2024/01/22 03:32:44;;;;;;;2.60;1.67;;;;;;;;;;5064393;28;20186;-50
2024/01/22 03:35:10;;;;;;;1.97;1.70;;;;;;;;;;5062422;28;20648;-51
2024/01/22 03:37:36;;;;;;;3.90;1.67;;;;;;;;;;5059241;28;20286;-51
2024/01/22 03:40:02;;;;;;;3.93;1.80;;;;;;;;;;5059031;28;20529;-50
2024/01/22 03:42:28;;;;;;;2.17;1.60;;;;;;;;;;5059884;28;20591;-51
2024/01/22 03:44:54;;;;;;;2.27;1.43;;;;;;;;;;5062660;28;20204;-50
2024/01/22 03:47:20;;;;;;;4.27;1.60;;;;;;;;;;5061178;28;20608;-51
2024/01/22 03:49:48;;;;;;;2.87;1.60;;;;;;;;;;5064293;28;20200;-51
2024/01/22 03:52:14;;;;;;;3.90;1.97;;;;;;;;;;5062454;28;20696;-50
2024/01/22 03:54:40;;;;;;;2.13;1.50;;;;;;;;;;5060720;28;20200;-50
2024/01/22 03:57:07;;;;;;;1.80;1.60;;;;;;;;;;5060695;28;20196;-51
2024/01/22 03:59:33;;;;;;;2.40;1.57;;;;;;;;;;5060894;28;20678;-50
2024/01/22 04:01:59;;;;;;;1.90;1.60;;;;;;;;;;5062385;28;20222;-50
2024/01/22 04:04:25;;;;;;;2.17;1.50;;;;;;;;;;5062362;28;20336;-51
2024/01/22 04:06:52;;;;;;;2.57;1.40;;;;;;;;;;5062163;28;20290;-51
2024/01/22 04:09:18;;;;;;;2.80;1.70;;;;;;;;;;5063994;28;20673;-51
2024/01/22 04:11:44;;;;;;;3.37;1.70;;;;;;;;;;5061384;28;20584;-50
2024/01/22 04:14:10;;;;;;;2.23;1.67;;;;;;;;;;5060230;28;20259;-50
2024/01/22 04:16:36;;;;;;;3.10;1.57;;;;;;;;;;5062119;28;20200;-50
2024/01/22 04:19:02;;;;;;;4.00;1.90;;;;;;;;;;5060920;28;20218;-50
2024/01/22 04:21:28;;;;;;;2.13;1.60;;;;;;;;;;5059280;28;20273;-50
2024/01/22 04:23:56;;;;;;;2.30;1.90;;;;;;;;;;5061904;28;20228;-51
2024/01/22 04:26:22;;;;;;;2.13;1.43;;;;;;;;;;5060343;28;20635;-50
2024/01/22 04:28:48;;;;;;;3.27;1.63;;;;;;;;;;5060238;28;20227;-50
2024/01/22 04:31:14;;;;;;;2.47;1.60;;;;;;;;;;5060206;28;20716;-50
2024/01/22 04:33:42;;;;;;;2.33;1.30;;;;;;;;;;5061839;28;20207;-50
2024/01/22 04:36:08;;;;;;;2.13;1.40;;;;;;;;;;5060022;28;20195;-50
2024/01/22 04:38:34;;;;;;;1.40;1.30;;;;;;;;;;5061811;28;20219;-50
2024/01/22 04:41:02;;;;;;;1.83;1.50;;;;;;;;;;5059768;28;20624;-50
2024/01/22 04:43:28;;;;;;;2.13;1.50;;;;;;;;;;5060000;28;20192;-50
2024/01/22 04:45:53;;;;;;;1.90;1.40;;;;;;;;;;5059659;28;20670;-50
2024/01/22 04:48:19;;;;;;;2.20;1.50;;;;;;;;;;5059714;28;20206;-49
2024/01/22 04:50:45;;;;;;;2.10;1.37;;;;;;;;;;5059901;28;20204;-50
2024/01/22 04:53:11;;;;;;;2.90;1.70;;;;;;;;;;5057981;28;20204;-49
2024/01/22 04:55:37;;;;;;;2.33;1.60;;;;;;;;;;5061370;28;20210;-50
2024/01/22 04:58:05;;;;;;;2.57;1.73;;;;;;;;;;5059457;28;20202;-50
2024/01/22 05:00:31;;;;;;;2.63;1.63;;;;;;;;;;5059714;28;20211;-50
2024/01/22 05:02:59;;;;;;;2.37;1.67;;;;;;;;;;5059440;28;20628;-50
2024/01/22 05:05:25;;;;;;;2.07;1.80;;;;;;;;;;5057897;28;20200;-49
2024/01/22 05:07:51;;;;;;;4.60;1.57;;;;;;;;;;5060266;28;20620;-49
2024/01/22 05:10:17;;;;;;;2.93;1.60;;;;;;;;;;5059308;28;20231;-49
2024/01/22 05:12:43;;;;;;;3.20;1.60;;;;;;;;;;5061021;28;20237;-49
2024/01/22 05:15:12;;;;;;;2.60;1.80;;;;;;;;;;5058614;28;20199;-49
2024/01/22 05:17:38;;;;;;;2.97;1.80;;;;;;;;;;5059181;28;20732;-49
2024/01/22 05:20:05;;;;;;;2.10;1.60;;;;;;;;;;5059078;28;20195;-49
2024/01/22 05:22:31;;;;;;;1.70;1.53;;;;;;;;;;5059137;28;20766;-50
2024/01/22 05:24:58;;;;;;;1.57;1.47;;;;;;;;;;5059045;28;20191;-51
2024/01/22 05:27:27;;;;;;;2.07;1.60;;;;;;;;;;5059223;28;20199;-53
2024/01/22 05:29:53;;;;;;;2.13;1.80;;;;;;;;;;5057204;28;20200;-54
2024/01/22 05:32:20;;;;;;;3.30;1.63;;;;;;;;;;5058787;28;20196;-54
2024/01/22 05:34:46;;;;;;;3.03;1.60;;;;;;;;;;5059007;28;20207;-51
2024/01/22 05:37:12;;;;;;;1.67;1.50;;;;;;;;;;5058817;28;20203;-51
2024/01/22 05:39:38;;;;;;;3.97;1.50;;;;;;;;;;5058906;28;20195;-51
2024/01/22 05:42:05;;;;;;;3.27;1.40;;;;;;;;;;5058460;28;20250;-51
2024/01/22 05:44:31;;;;;;;1.83;1.30;;;;;;;;;;5058673;28;20199;-51
2024/01/22 05:46:57;;;;;;;2.13;1.60;;;;;;;;;;5058349;28;20199;-50
2024/01/22 05:49:24;;;;;;;1.87;1.67;;;;;;;;;;5058911;28;20188;-51
2024/01/22 05:51:50;;;;;;;1.83;1.43;;;;;;;;;;5058608;28;20207;-52
2024/01/22 05:54:16;;;;;;;2.60;1.40;;;;;;;;;;5058624;28;20563;-50
2024/01/22 05:56:42;;;;;;;1.87;1.33;;;;;;;;;;5058510;28;20563;-51
2024/01/22 05:59:08;;;;;;;2.23;1.33;;;;;;;;;;5056765;28;20203;-50
2024/01/22 06:01:34;;;;;;;2.80;1.60;;;;;;;;;;5058427;28;20231;-50
2024/01/22 06:04:00;;;;;;;1.83;1.30;;;;;;;;;;5058367;28;20633;-50
2024/01/22 06:06:27;;;;;;;2.07;1.43;;;;;;;;;;5057722;28;20244;-49
2024/01/22 06:08:53;;;;;;;2.33;1.50;;;;;;;;;;5058269;28;20207;-49
2024/01/22 06:11:20;;;;;;;1.40;1.27;;;;;;;;;;5058113;28;20192;-50
2024/01/22 06:13:46;;;;;;;4.20;1.40;;;;;;;;;;5058035;28;20243;-50
2024/01/22 06:16:12;;;;;;;2.83;1.37;;;;;;;;;;5056279;28;20254;-48
2024/01/22 06:18:45;;;;;;;2.17;1.40;;;;;;;;;;5057592;28;20212;-49
2024/01/22 06:21:11;;;;;;;2.10;1.50;;;;;;;;;;5057806;28;20203;-49
2024/01/22 06:23:39;;;;;;;1.83;1.40;;;;;;;;;;5057965;28;20188;-49
2024/01/22 06:26:05;;;;;;;2.27;1.60;;;;;;;;;;5056189;28;20281;-49
2024/01/22 06:28:31;;;;;;;2.23;1.60;;;;;;;;;;5058181;28;20630;-49
2024/01/22 06:30:58;;;;;;;1.20;1.10;;;;;;;;;;5057805;28;20557;-49
2024/01/22 06:33:24;;;;;;;1.40;1.27;;;;;;;;;;5057749;28;20570;-49
2024/01/22 06:35:50;;;;;;;1.63;1.50;;;;;;;;;;5057879;28;20187;-49
2024/01/22 06:38:17;;;;;;;2.23;1.50;;;;;;;;;;5057890;28;20670;-49
2024/01/22 06:40:44;;;;;;;1.67;1.57;;;;;;;;;;5058145;28;20292;-49
2024/01/22 06:43:10;;;;;;;2.13;1.40;;;;;;;;;;5057807;28;20583;-49
2024/01/22 06:45:36;;;;;;;2.73;1.40;;;;;;;;;;5057997;28;20206;-49
2024/01/22 06:48:02;;;;;;;3.70;1.50;;;;;;;;;;5057792;28;20199;-50
2024/01/22 06:50:28;;;;;;;8.03;3.93;;;;;;;;;;5057936;28;20195;-49
2024/01/22 06:52:55;;;;;;;2.00;1.57;;;;;;;;;;5059377;28;20262;-50
2024/01/22 06:55:21;;;;;;;3.47;1.83;;;;;;;;;;5057852;28;20657;-49
2024/01/22 06:57:48;;;;;;;4.47;2.40;;;;;;;;;;5057796;28;20304;-49
2024/01/22 07:00:15;;;;;;;3.90;2.40;;;;;;;;;;5057876;28;20207;-49
2024/01/22 07:02:43;;;;;;;4.43;2.40;;;;;;;;;;5056028;28;20223;-49
2024/01/22 07:05:10;;;;;;;2.03;1.40;;;;;;;;;;5057723;28;20273;-50
2024/01/22 07:07:37;;;;;;;1.90;1.70;;;;;;;;;;5057907;28;20219;-50
2024/01/22 07:10:05;;;;;;;3.20;1.50;;;;;;;;;;5057757;28;20206;-49
2024/01/22 07:12:31;;;;;;;2.27;1.77;;;;;;;;;;5057730;28;20660;-49
2024/01/22 07:15:00;;;;;;;1.60;1.50;;;;;;;;;;5056041;28;20295;-49
2024/01/22 07:17:26;;;;;;;1.43;1.33;;;;;;;;;;5060221;28;20306;-49
2024/01/22 07:19:52;;;;;;;1.40;1.30;;;;;;;;;;5061530;28;20665;-49
2024/01/22 07:22:18;;;;;;;1.20;1.10;;;;;;;;;;5059599;28;20268;-49
2024/01/22 07:24:44;;;;;;;1.37;1.27;;;;;;;;;;5061479;28;20654;-49
2024/01/22 07:27:10;;;;;;;1.77;1.20;;;;;;;;;;5061309;28;20191;-49
2024/01/22 07:29:36;;;;;;;1.40;1.10;;;;;;;;;;5061382;28;20199;-49
2024/01/22 07:32:04;;;;;;;1.60;1.30;;;;;;;;;;5061165;28;20196;-49
2024/01/22 07:34:30;;;;;;;1.33;1.23;;;;;;;;;;5059902;28;20200;-49
2024/01/22 07:36:56;;;;;;;2.03;1.57;;;;;;;;;;5061214;28;20257;-49
2024/01/22 07:39:22;;;;;;;1.30;1.20;;;;;;;;;;5061045;28;20938;-49
2024/01/22 07:41:48;;;;;;;1.47;1.20;;;;;;;;;;5060928;28;20219;-49
2024/01/22 07:44:14;;;;;;;1.53;1.20;;;;;;;;;;5059266;28;20199;-49
2024/01/22 07:46:40;;;;;;;1.10;1.00;;;;;;;;;;5060969;28;20192;-48
2024/01/22 07:49:07;;;;;;;1.30;1.10;;;;;;;;;;5060433;28;20850;-49
2024/01/22 07:51:34;;;;;;;1.40;1.30;;;;;;;;;;5060586;28;20200;-49
2024/01/22 07:54:01;;;;;;;1.40;1.30;;;;;;;;;;5060907;28;20265;-50
2024/01/22 07:56:28;;;;;;;2.20;2.00;;;;;;;;;;5059218;28;20283;-49
2024/01/22 07:58:54;;;;;;;1.33;1.23;;;;;;;;;;5060674;28;20213;-49
2024/01/22 08:01:20;;;;;;;1.37;1.20;;;;;;;;;;5060388;28;20215;-49
2024/01/22 08:03:46;;;;;;;1.30;1.20;;;;;;;;;;5060658;28;20658;-49
2024/01/22 08:06:13;;;;;;;1.30;1.20;;;;;;;;;;5060491;28;20206;-50
2024/01/22 08:08:40;;;;;;;1.07;1.00;;;;;;;;;;5060529;28;20200;-49
2024/01/22 08:11:06;;;;;;;1.40;1.20;;;;;;;;;;5060378;28;20210;-49
2024/01/22 08:13:32;;;;;;;1.57;1.30;;;;;;;;;;5058771;28;20235;-49
2024/01/22 08:15:58;;;;;;;2.07;1.50;;;;;;;;;;5060385;28;20208;-50
2024/01/22 08:18:24;;;;;;;1.90;1.20;;;;;;;;;;5059912;28;20265;-50
2024/01/22 08:20:50;;;;;;;1.80;1.70;;;;;;;;;;5060184;28;20187;-49
2024/01/22 08:23:18;;;;;;;2.90;1.20;;;;;;;;;;5060106;28;20224;-50
2024/01/22 08:25:44;;;;;;;1.17;1.17;;;;;;;;;;5060265;28;20218;-49
2024/01/22 08:28:10;;;;;;;2.27;1.33;;;;;;;;;;5059371;28;20211;-49
2024/01/22 08:30:36;;;;;;;2.43;1.00;;;;;;;;;;5060172;28;20279;-49
2024/01/22 08:33:02;;;;;;;1.33;1.23;;;;;;;;;;5060019;28;20298;-49
2024/01/22 08:35:28;;;;;;;1.40;1.30;;;;;;;;;;5060129;28;20214;-49
2024/01/22 08:37:54;;;;;;;1.73;1.43;;;;;;;;;;5059943;28;20567;-49
2024/01/22 08:40:21;;;;;;;2.30;1.30;;;;;;;;;;5059903;28;20203;-49
2024/01/22 08:42:51;;;;;;;1.30;1.20;;;;;;;;;;5059704;28;20749;-49
2024/01/22 08:45:17;;;;;;;1.30;1.20;;;;;;;;;;5059692;28;20192;-49
2024/01/22 08:47:46;;;;;;;1.30;1.20;;;;;;;;;;5066824;28;20692;-49
2024/01/22 08:50:17;;;;;;;1.87;1.13;;;;;;;;;;5073338;28;20249;-50
2024/01/22 08:52:44;;;;;;;1.80;1.10;;;;;;;;;;5073509;28;20187;-49
2024/01/22 08:55:10;;;;;;;1.30;1.00;;;;;;;;;;5073088;28;20749;-49
2024/01/22 08:57:37;;;;;;;3.90;1.37;;;;;;;;;;5073234;28;20468;-49
2024/01/22 09:00:10;;;;;;;1.87;1.47;;;;;;;;;;5073094;28;20245;-49
2024/01/22 09:02:36;;;;;;;1.53;1.23;;;;;;;;;;5072994;28;20223;-49
2024/01/22 09:05:03;;;;;;;1.20;1.10;;;;;;;;;;5073084;28;20204;-49
2024/01/22 09:07:29;;;;;;;2.13;1.60;;;;;;;;;;5073435;28;20195;-49
2024/01/22 09:09:57;;;;;;;1.20;1.10;;;;;;;;;;5075732;28;20200;-49
2024/01/22 09:12:23;;;;;;;1.20;1.10;;;;;;;;;;5075421;28;20646;-49
2024/01/22 09:14:51;;;;;;;1.70;1.60;;;;;;;;;;5072848;28;20615;-49
2024/01/22 09:17:17;;;;;;;1.30;1.20;;;;;;;;;;5072397;28;20215;-49
2024/01/22 09:19:43;;;;;;;1.40;1.30;;;;;;;;;;5072781;28;20202;-49
2024/01/22 09:22:09;;;;;;;2.83;1.50;;;;;;;;;;5072568;28;20290;-49
2024/01/22 09:24:35;;;;;;;2.30;1.30;;;;;;;;;;5072455;28;20206;-49
2024/01/22 09:27:01;;;;;;;1.80;1.40;;;;;;;;;;5071061;28;20271;-50
2024/01/22 09:29:27;;;;;;;1.90;1.40;;;;;;;;;;5057273;28;20616;-50
2024/01/22 09:31:55;;;;;;;1.20;1.10;;;;;;;;;;5058739;28;20199;-51
2024/01/22 09:34:21;;;;;;;1.77;1.40;;;;;;;;;;5058650;28;20282;-50
2024/01/22 09:36:47;;;;;;;1.37;1.27;;;;;;;;;;5058757;28;20276;-51
2024/01/22 09:39:13;;;;;;;1.20;1.10;;;;;;;;;;5058510;28;20215;-52
2024/01/22 09:41:40;;;;;;;2.67;1.50;;;;;;;;;;5059125;28;20235;-54
2024/01/22 09:44:07;;;;;;;1.93;1.30;;;;;;;;;;5058586;28;20199;-54
2024/01/22 09:46:34;;;;;;;1.67;1.30;;;;;;;;;;5057004;28;20223;-55
2024/01/22 09:49:01;;;;;;;1.87;1.50;;;;;;;;;;5059598;28;20191;-54
2024/01/22 09:51:28;;;;;;;1.97;1.60;;;;;;;;;;5072858;28;20199;-54
2024/01/22 09:53:59;;;;;;;1.73;1.60;;;;;;;;;;5076032;28;20489;-54
2024/01/22 09:56:27;;;;;;;2.60;1.50;;;;;;;;;;5075178;28;20240;-54
2024/01/22 09:58:55;;;;;;;2.10;1.90;;;;;;;;;;5072632;28;20200;-52
2024/01/22 10:01:21;;;;;;;2.37;1.97;;;;;;;;;;5072743;28;20226;-51
2024/01/22 10:03:48;;;;;;;3.43;1.90;;;;;;;;;;5072116;28;20200;-54
2024/01/22 10:06:15;;;;;;;3.03;1.80;;;;;;;;;;5072623;28;20571;-50
2024/01/22 10:08:42;;;;;;;3.13;1.80;;;;;;;;;;5073292;28;20210;-48
2024/01/22 10:11:09;;;;;;;3.93;1.80;;;;;;;;;;5071973;28;20195;-47
2024/01/22 10:13:48;;;;;;;2.13;1.80;;;;;;;;;;5071736;28;20285;-47
2024/01/22 10:16:14;;;;;;;3.27;1.93;;;;;;;;;;5071872;28;20227;-46
2024/01/22 10:18:55;;;;;;;3.27;2.03;;;;;;;;;;5071959;28;20216;-46
2024/01/22 10:21:22;;;;;;;4.00;2.03;;;;;;;;;;5071562;28;20867;-47
2024/01/22 10:23:55;;;;;;;2.00;1.90;;;;;;;;;;5071831;28;20192;-46
2024/01/22 10:26:21;;;;;;;3.10;2.07;;;;;;;;;;5071781;28;20203;-46
2024/01/22 10:28:51;;;;;;;4.60;1.70;;;;;;;;;;5072088;28;20245;-47
2024/01/22 10:31:17;;;;;;;3.20;2.23;;;;;;;;;;5071556;28;20685;-48
2024/01/22 10:33:43;;;;;;;2.87;2.00;;;;;;;;;;5071798;28;20195;-48
2024/01/22 10:36:14;;;;;;;2.73;1.90;;;;;;;;;;5071744;28;20563;-47
2024/01/22 10:38:41;;;;;;;2.43;1.80;;;;;;;;;;5071876;28;20274;-46
2024/01/22 10:41:15;;;;;;;3.67;1.87;;;;;;;;;;5071658;28;20199;-49
2024/01/22 10:43:42;;;;;;;2.30;1.70;;;;;;;;;;5071909;28;20237;-46
2024/01/22 10:46:09;;;;;;;3.27;1.90;;;;;;;;;;5071423;28;20665;-46
2024/01/22 10:48:35;;;;;;;3.87;1.80;;;;;;;;;;5071776;28;20286;-46
2024/01/22 10:51:01;;;;;;;3.73;2.07;;;;;;;;;;5071844;28;20769;-46
2024/01/22 10:53:28;;;;;;;3.07;1.70;;;;;;;;;;5075772;28;20214;-48
2024/01/22 10:55:59;;;;;;;3.67;2.20;;;;;;;;;;5075837;28;20196;-47
2024/01/22 10:58:29;;;;;;;6.07;2.40;;;;;;;;;;5075485;28;20661;-48
2024/01/22 11:00:58;;;;;;;5.50;2.97;;;;;;;;;;5061918;28;20202;-49
2024/01/22 11:03:26;;;;;;;4.97;2.37;;;;;;;;;;5061610;28;20226;-50
2024/01/22 11:05:56;;;;;;;4.57;2.20;;;;;;;;;;5061687;28;20199;-50
2024/01/22 11:08:22;;;;;;;5.27;1.90;;;;;;;;;;5061556;28;20211;-49
2024/01/22 11:10:50;;;;;;;3.83;1.80;;;;;;;;;;5078969;28;20226;-51
2024/01/22 11:13:21;;;;;;;5.10;2.47;;;;;;;;;;5073561;28;20227;-50
2024/01/22 11:15:47;;;;;;;4.13;2.73;;;;;;;;;;5075433;28;20552;-50
2024/01/22 11:18:13;;;;;;;4.03;2.13;;;;;;;;;;5075039;28;20313;-50
2024/01/22 11:20:39;;;;;;;3.43;2.00;;;;;;;;;;5075290;28;20206;-50
2024/01/22 11:23:09;;;;;;;4.33;2.20;;;;;;;;;;5075163;28;20357;-49
2024/01/22 11:25:35;;;;;;;4.40;1.97;;;;;;;;;;5075067;28;20219;-48
2024/01/22 11:28:02;;;;;;;5.37;2.10;;;;;;;;;;5068244;28;20249;-50
2024/01/22 11:30:31;;;;;;;4.33;2.20;;;;;;;;;;5070893;28;20196;-49
2024/01/22 11:32:57;;;;;;;3.73;1.90;;;;;;;;;;5074808;28;20241;-49
2024/01/22 11:35:34;;;;;;;5.00;2.87;;;;;;;;;;5074575;28;20200;-49
2024/01/22 11:38:01;;;;;;;5.10;2.20;;;;;;;;;;5074688;28;20652;-49
2024/01/22 11:40:46;;;;;;;4.53;2.20;;;;;;;;;;5074256;28;20200;-51
2024/01/22 11:43:12;;;;;;;3.80;2.10;;;;;;;;;;5074366;28;20310;-51
2024/01/22 11:45:40;;;;;;;3.87;2.40;;;;;;;;;;5074352;28;20630;-52
2024/01/22 11:48:15;;;;;;;4.60;2.53;;;;;;;;;;5074203;28;20882;-51
2024/01/22 11:50:41;;;;;;;5.33;2.77;;;;;;;;;;5074322;28;20199;-53
2024/01/22 11:53:07;;;;;;;6.60;3.10;;;;;;;;;;5074072;28;20194;-50
2024/01/22 11:55:33;;;;;;;7.20;2.50;;;;;;;;;;5074174;28;20592;-50
2024/01/22 11:57:59;;;;;;;5.27;1.73;;;;;;;;;;5074231;28;20249;-52
2024/01/22 12:00:25;;;;;;;2.50;1.40;;;;;;;;;;5074040;28;20195;-51
2024/01/22 12:02:56;;;;;;;3.63;1.40;;;;;;;;;;5072607;28;20229;-52
2024/01/22 12:05:23;;;;;;;3.50;1.53;;;;;;;;;;5073556;28;20207;-51
2024/01/22 12:07:49;;;;;;;3.77;1.80;;;;;;;;;;5074021;28;20717;-51
2024/01/22 12:10:20;;;;;;;2.87;1.60;;;;;;;;;;5074059;28;20386;-52
2024/01/22 12:12:50;;;;;;;5.30;1.60;;;;;;;;;;5073843;28;20241;-53
2024/01/22 12:15:16;;;;;;;6.47;1.80;;;;;;;;;;5073621;28;20249;-52
2024/01/22 12:17:43;;;;;;;8.03;2.37;;;;;;;;;;5073652;28;20223;-49
2024/01/22 12:20:11;;;;;;;6.20;1.97;;;;;;;;;;5073732;28;20199;-52
2024/01/22 12:22:37;;;;;;;5.97;2.00;;;;;;;;;;5073425;28;20215;-51
2024/01/22 12:25:04;;;;;;;4.27;1.93;;;;;;;;;;5073388;28;20196;-51
2024/01/22 12:27:30;;;;;;;3.67;1.93;;;;;;;;;;5073620;28;20204;-51
2024/01/22 12:30:00;;;;;;;5.63;2.10;;;;;;;;;;5073385;28;20676;-51
2024/01/22 12:32:26;;;;;;;7.33;1.67;;;;;;;;;;5073057;28;20191;-48
2024/01/22 12:34:55;;;;;;;8.90;2.03;;;;;;;;;;5073566;28;20202;-49
2024/01/22 12:37:23;;;;;;;7.53;2.10;;;;;;;;;;5073082;28;20195;-51
2024/01/22 12:39:49;;;;;;;6.33;2.13;;;;;;;;;;5073350;28;20556;-51
2024/01/22 12:42:17;;;;;;;6.37;1.70;;;;;;;;;;5073016;28;20224;-50
2024/01/22 12:44:43;;;;;;;8.60;2.30;;;;;;;;;;5073398;28;20195;-50
2024/01/22 12:47:09;;;;;;;5.70;2.50;;;;;;;;;;5073100;28;20203;-49
2024/01/22 12:49:35;;;;;;;5.40;2.47;;;;;;;;;;5070163;28;20720;-49
2024/01/22 12:52:09;;;;;;;5.97;2.30;;;;;;;;;;5071688;28;20245;-51
2024/01/22 12:54:36;;;;;;;5.73;2.40;;;;;;;;;;5070978;28;20294;-51
2024/01/22 12:57:03;;;;;;;4.40;1.87;;;;;;;;;;5071679;28;20208;-50
2024/01/22 12:59:32;;;;;;;6.23;2.23;;;;;;;;;;5073178;28;20199;-48
2024/01/22 13:01:58;;;;;;;6.90;2.30;;;;;;;;;;5073359;28;20215;-48
2024/01/22 13:04:24;;;;;;;5.23;2.60;;;;;;;;;;5073310;28;20207;-49
2024/01/22 13:06:50;;;;;;;8.20;2.60;;;;;;;;;;5073315;28;20194;-49
2024/01/22 13:09:17;;;;;;;5.37;1.90;;;;;;;;;;5073311;28;20200;-49
2024/01/22 13:11:46;;;;;;;8.23;2.30;;;;;;;;;;5073259;28;20257;-49
2024/01/22 13:14:12;;;;;;;8.33;2.20;;;;;;;;;;5072675;28;20243;-49
2024/01/22 13:16:38;;;;;;;4.03;1.60;;;;;;;;;;5072806;28;20207;-49
2024/01/22 13:19:04;;;;;;;5.13;1.83;;;;;;;;;;5073177;28;20203;-49
2024/01/22 13:21:30;;;;;;;3.70;2.10;;;;;;;;;;5072864;28;20772;-49
2024/01/22 13:23:56;;;;;;;3.60;1.77;;;;;;;;;;5073069;28;20222;-49
2024/01/22 13:26:22;;;;;;;5.33;1.80;;;;;;;;;;5072919;28;20253;-49
2024/01/22 13:28:50;;;;;;;7.97;2.40;;;;;;;;;;5072990;28;20199;-49
2024/01/22 13:31:16;;;;;;;4.00;1.80;;;;;;;;;;5070951;28;20576;-49
2024/01/22 13:33:42;;;;;;;5.40;1.93;;;;;;;;;;5072766;28;20207;-49
2024/01/22 13:36:08;;;;;;;4.97;2.00;;;;;;;;;;5070899;28;20191;-48
2024/01/22 13:38:36;;;;;;;3.73;2.10;;;;;;;;;;5072566;28;20298;-49
2024/01/22 13:41:05;;;;;;;5.33;2.37;;;;;;;;;;5072716;28;20207;-50
2024/01/22 13:43:31;;;;;;;6.17;2.20;;;;;;;;;;5070848;28;20702;-49
2024/01/22 13:45:58;;;;;;;5.73;2.13;;;;;;;;;;5073507;28;20195;-49
2024/01/22 13:48:24;;;;;;;13.57;2.90;;;;;;;;;;5073148;28;20337;-49
2024/01/22 13:50:53;;;;;;;6.77;2.47;;;;;;;;;;5065109;28;20721;-48
2024/01/22 13:53:19;;;;;;;8.77;2.20;;;;;;;;;;5067694;28;20237;-49
2024/01/22 13:55:45;;;;;;;6.13;2.10;;;;;;;;;;5066361;28;20196;-49
2024/01/22 13:58:11;;;;;;;12.93;2.67;;;;;;;;;;5070916;28;20203;-49
2024/01/22 14:00:37;;;;;;;10.23;2.60;;;;;;;;;;5064582;28;20215;-49
2024/01/22 14:03:05;;;;;;;8.03;2.97;;;;;;;;;;5064175;28;20227;-49
2024/01/22 14:05:31;;;;;;;7.83;2.60;;;;;;;;;;5070524;28;20199;-49
2024/01/22 14:07:57;;;;;;;9.37;3.17;;;;;;;;;;5067122;28;20560;-49
2024/01/22 14:10:23;;;;;;;11.60;3.03;;;;;;;;;;5065141;28;20205;-48
2024/01/22 14:12:49;;;;;;;12.93;3.50;;;;;;;;;;5065243;28;20262;-49
2024/01/22 14:15:15;;;;;;;10.17;2.93;;;;;;;;;;5070419;28;20606;-48
2024/01/22 14:17:41;;;;;;;10.30;3.20;;;;;;;;;;5070087;28;20285;-48
2024/01/22 14:20:09;;;;;;;10.70;2.93;;;;;;;;;;5065084;28;20198;-47
2024/01/22 14:22:37;;;;;;;14.47;3.80;;;;;;;;;;5070040;28;20223;-48
2024/01/22 14:25:03;;;;;;;8.43;2.60;;;;;;;;;;5070163;28;20237;-48
2024/01/22 14:27:29;;;;;;;11.77;3.30;;;;;;;;;;5065922;28;20598;-49
2024/01/22 14:29:55;;;;;;;11.57;3.37;;;;;;;;;;5064780;28;20230;-48
2024/01/22 14:32:22;;;;;;;10.77;2.77;;;;;;;;;;5064911;28;20199;-48
2024/01/22 14:34:48;;;;;;;9.20;3.20;;;;;;;;;;5066636;28;20210;-48
2024/01/22 14:37:15;;;;;;;10.23;3.40;;;;;;;;;;5066759;28;20194;-48
2024/01/22 14:39:41;;;;;;;9.10;3.23;;;;;;;;;;5063131;28;20692;-48